Time;durP1;ratioP1;P1;durP2;ratioP2;P2;SDS_P1;SDS_P2;PMS_P1;PMS_P2;Temp;Humidity;BMP_temperature;BMP_pressure;BME280_temperature;BME280_humidity;BME280_pressure;Samples;Min_cycle;Max_cycle;Signal;HPM_P1;HPM_P2
2021/10/06 00:02:15;;;;;;;1.50;0.90;;;12.50;85.10;;;;;;5030932;28;20163;-74
2021/10/06 00:04:41;;;;;;;1.77;0.93;;;12.50;84.90;;;;;;5031173;28;20722;-74
2021/10/06 00:07:07;;;;;;;3.97;2.23;;;12.50;84.70;;;;;;5031110;28;20427;-74
2021/10/06 00:09:33;;;;;;;3.83;0.97;;;12.50;84.80;;;;;;5030847;28;20646;-74
2021/10/06 00:11:58;;;;;;;5.60;1.10;;;12.50;84.60;;;;;;5030194;28;20170;-74
2021/10/06 00:14:24;;;;;;;1.73;0.90;;;12.50;84.60;;;;;;5029738;28;20250;-74
2021/10/06 00:16:53;;;;;;;3.07;1.00;;;12.50;84.20;;;;;;5029654;28;20276;-75
2021/10/06 00:19:22;;;;;;;3.60;0.70;;;12.50;84.20;;;;;;5029241;28;20802;-75
2021/10/06 00:21:48;;;;;;;3.30;1.17;;;12.50;84.20;;;;;;5030194;28;20447;-75
2021/10/06 00:24:14;;;;;;;2.07;0.87;;;12.50;84.00;;;;;;5009629;28;20461;-75
2021/10/06 00:26:43;;;;;;;3.53;1.53;;;12.50;83.90;;;;;;5011273;28;20764;-75
2021/10/06 00:29:08;;;;;;;2.57;1.10;;;12.50;83.70;;;;;;5010759;28;20259;-75
2021/10/06 00:31:34;;;;;;;1.77;0.70;;;12.40;83.60;;;;;;5010513;28;20967;-75
2021/10/06 00:34:00;;;;;;;2.43;1.13;;;12.40;83.90;;;;;;5028380;28;20265;-75
2021/10/06 00:36:26;;;;;;;2.80;0.90;;;12.40;84.30;;;;;;5030905;28;20436;-75
2021/10/06 00:38:52;;;;;;;3.10;1.30;;;12.30;84.30;;;;;;5029059;28;20174;-75
2021/10/06 00:41:17;;;;;;;3.87;1.10;;;12.20;84.50;;;;;;5028711;28;20199;-75
2021/10/06 00:43:43;;;;;;;4.90;1.40;;;12.20;84.90;;;;;;5030088;28;20261;-75
2021/10/06 00:46:14;;;;;;;2.90;0.90;;;12.10;85.00;;;;;;5030448;28;20643;-75
2021/10/06 00:48:43;;;;;;;2.20;1.97;;;12.00;85.40;;;;;;5029281;28;20178;-75
2021/10/06 00:51:20;;;;;;;1.40;1.00;;;11.90;85.50;;;;;;5029603;28;20673;-75
2021/10/06 00:53:46;;;;;;;3.30;1.20;;;11.90;85.90;;;;;;5030271;28;20176;-75
2021/10/06 00:56:12;;;;;;;1.97;1.10;;;11.90;86.20;;;;;;5032971;28;20413;-74
2021/10/06 00:58:41;;;;;;;6.57;1.20;;;11.80;86.20;;;;;;5034374;28;20504;-75
2021/10/06 01:01:07;;;;;;;3.43;1.30;;;11.80;86.30;;;;;;5032264;28;20999;-74
2021/10/06 01:03:33;;;;;;;7.93;1.63;;;11.70;86.50;;;;;;5032560;28;20539;-75
2021/10/06 01:05:59;;;;;;;2.80;1.37;;;11.70;86.70;;;;;;5034356;28;20249;-75
2021/10/06 01:08:25;;;;;;;4.00;1.20;;;11.70;87.10;;;;;;5016299;28;20190;-75
2021/10/06 01:10:53;;;;;;;3.90;0.90;;;11.60;87.20;;;;;;5033106;28;20977;-74
2021/10/06 01:13:19;;;;;;;2.13;1.07;;;11.70;87.40;;;;;;5034033;28;20191;-75
2021/10/06 01:15:46;;;;;;;4.60;1.50;;;11.70;87.40;;;;;;5033777;28;20409;-75
2021/10/06 01:18:12;;;;;;;5.23;1.37;;;11.70;87.30;;;;;;5033862;28;20409;-75
2021/10/06 01:20:38;;;;;;;4.33;1.37;;;11.80;87.30;;;;;;5032543;28;20541;-75
2021/10/06 01:23:04;;;;;;;3.33;0.90;;;11.90;87.20;;;;;;5034055;28;20910;-74
2021/10/06 01:25:30;;;;;;;6.90;1.10;;;11.90;86.40;;;;;;5032018;28;20324;-75
2021/10/06 01:27:56;;;;;;;7.93;1.33;;;11.90;86.30;;;;;;5033961;28;20405;-75
2021/10/06 01:30:22;;;;;;;2.47;1.77;;;11.90;86.50;;;;;;5033436;28;20433;-74
2021/10/06 01:32:48;;;;;;;7.83;1.20;;;11.90;86.20;;;;;;5032326;28;20372;-75
2021/10/06 01:35:15;;;;;;;3.93;1.10;;;11.90;86.20;;;;;;5015664;28;20174;-75
2021/10/06 01:37:44;;;;;;;4.60;1.53;;;12.00;86.50;;;;;;5033841;28;20420;-75
2021/10/06 01:40:16;;;;;;;7.27;1.60;;;12.00;86.30;;;;;;5031846;28;20440;-75
2021/10/06 01:42:43;;;;;;;3.43;1.03;;;12.00;86.20;;;;;;5033689;28;20436;-74
2021/10/06 01:45:27;;;;;;;7.93;1.40;;;12.00;86.10;;;;;;5032185;28;20455;-74
2021/10/06 01:48:08;;;;;;;3.27;1.00;;;12.00;85.80;;;;;;5033440;28;20413;-74
2021/10/06 01:50:34;;;;;;;2.90;1.07;;;12.00;85.90;;;;;;5032102;28;20456;-74
2021/10/06 01:53:00;;;;;;;6.70;1.30;;;11.90;85.90;;;;;;5033489;28;20413;-74
2021/10/06 01:55:31;;;;;;;7.47;1.27;;;11.90;86.00;;;;;;5032149;28;20444;-74
2021/10/06 01:57:59;;;;;;;2.63;0.80;;;11.80;86.20;;;;;;5033264;28;20504;-74
2021/10/06 02:00:30;;;;;;;3.27;1.17;;;11.80;86.70;;;;;;5032505;28;20552;-73
2021/10/06 02:02:57;;;;;;;7.43;1.10;;;11.70;86.80;;;;;;5033318;28;20410;-74
2021/10/06 02:05:24;;;;;;;3.07;0.90;;;11.70;87.10;;;;;;5031584;28;20467;-73
2021/10/06 02:07:50;;;;;;;2.43;1.20;;;11.60;87.20;;;;;;5032267;28;20224;-74
2021/10/06 02:10:15;;;;;;;2.97;1.23;;;11.60;87.30;;;;;;5031084;28;20433;-74
2021/10/06 02:12:41;;;;;;;4.10;1.10;;;11.60;87.50;;;;;;5032837;28;20432;-74
2021/10/06 02:15:08;;;;;;;3.23;1.30;;;11.60;87.50;;;;;;5033013;28;20194;-75
2021/10/06 02:17:34;;;;;;;4.53;0.93;;;11.60;87.40;;;;;;5031096;28;20420;-75
2021/10/06 02:20:00;;;;;;;5.23;1.60;;;11.60;87.50;;;;;;5030919;28;20444;-75
2021/10/06 02:22:26;;;;;;;6.80;1.03;;;11.70;87.40;;;;;;5032874;28;20171;-75
2021/10/06 02:24:52;;;;;;;4.30;1.33;;;11.70;87.40;;;;;;5029146;28;20272;-75
2021/10/06 02:27:18;;;;;;;10.23;1.73;;;11.80;87.30;;;;;;5032992;28;20879;-73
2021/10/06 02:29:43;;;;;;;4.77;1.47;;;11.90;87.10;;;;;;5031623;28;20166;-74
2021/10/06 02:32:09;;;;;;;3.83;1.30;;;12.00;86.60;;;;;;5032624;28;20413;-75
2021/10/06 02:34:34;;;;;;;5.27;1.47;;;12.00;86.20;;;;;;5032816;28;20261;-74
2021/10/06 02:37:00;;;;;;;4.53;1.90;;;12.00;86.10;;;;;;5032877;28;20174;-75
2021/10/06 02:39:26;;;;;;;3.63;1.53;;;12.00;86.10;;;;;;5031173;28;20182;-75
2021/10/06 02:41:52;;;;;;;2.13;1.10;;;11.90;86.00;;;;;;5032104;28;20577;-75
2021/10/06 02:44:18;;;;;;;3.27;1.13;;;11.90;86.00;;;;;;5031189;28;20492;-74
2021/10/06 02:46:43;;;;;;;5.70;1.53;;;11.90;86.00;;;;;;5032320;28;20170;-74
2021/10/06 02:49:09;;;;;;;6.90;1.33;;;11.90;86.20;;;;;;5032446;28;20173;-74
2021/10/06 02:51:35;;;;;;;4.20;1.30;;;11.80;86.30;;;;;;5031591;28;20260;-74
2021/10/06 02:54:01;;;;;;;10.50;1.50;;;11.80;86.40;;;;;;5031882;28;20257;-74
2021/10/06 02:56:26;;;;;;;7.37;1.43;;;11.70;86.50;;;;;;5032051;28;20405;-75
2021/10/06 02:58:52;;;;;;;4.27;1.30;;;11.70;86.60;;;;;;5031934;28;20205;-73
2021/10/06 03:01:18;;;;;;;7.30;1.60;;;11.70;86.80;;;;;;5029714;28;20203;-74
2021/10/06 03:03:43;;;;;;;6.03;1.87;;;11.70;86.90;;;;;;5031839;28;20493;-74
2021/10/06 03:06:10;;;;;;;2.50;1.27;;;11.70;86.90;;;;;;5031946;28;20186;-74
2021/10/06 03:08:36;;;;;;;3.80;1.30;;;11.70;86.80;;;;;;5030367;28;20184;-74
2021/10/06 03:11:03;;;;;;;10.73;1.50;;;11.70;87.00;;;;;;5031944;28;20512;-73
2021/10/06 03:13:29;;;;;;;2.83;1.20;;;11.70;86.90;;;;;;5032026;28;20167;-75
2021/10/06 03:16:01;;;;;;;6.80;1.37;;;11.60;86.80;;;;;;5031811;28;20492;-75
2021/10/06 03:18:27;;;;;;;4.07;1.47;;;11.60;86.90;;;;;;5031268;28;20413;-75
2021/10/06 03:20:53;;;;;;;12.03;1.53;;;11.60;87.00;;;;;;5030796;28;20463;-75
2021/10/06 03:23:20;;;;;;;1.50;1.10;;;11.70;87.30;;;;;;5013726;28;20409;-74
2021/10/06 03:25:46;;;;;;;3.20;1.50;;;11.70;87.10;;;;;;5031301;28;20917;-74
2021/10/06 03:28:12;;;;;;;2.50;1.00;;;11.80;87.00;;;;;;5031325;28;20417;-76
2021/10/06 03:30:38;;;;;;;4.30;1.37;;;11.80;86.60;;;;;;5029596;28;20841;-75
2021/10/06 03:33:04;;;;;;;7.90;1.73;;;11.80;86.40;;;;;;5031692;28;20158;-74
2021/10/06 03:35:30;;;;;;;8.37;2.93;;;11.80;86.20;;;;;;5031538;28;20398;-75
2021/10/06 03:37:55;;;;;;;4.90;2.03;;;11.80;86.40;;;;;;5031738;28;20171;-74
2021/10/06 03:40:22;;;;;;;7.07;1.50;;;11.70;86.30;;;;;;5032435;28;20186;-75
2021/10/06 03:42:48;;;;;;;5.40;1.50;;;11.60;86.60;;;;;;5033718;28;20640;-75
2021/10/06 03:45:14;;;;;;;5.57;1.17;;;11.60;86.80;;;;;;5050461;28;20441;-74
2021/10/06 03:47:41;;;;;;;4.07;1.00;;;11.50;86.70;;;;;;5053847;28;20405;-75
2021/10/06 03:50:09;;;;;;;3.83;1.33;;;11.50;86.30;;;;;;5050695;28;20436;-74
2021/10/06 03:52:35;;;;;;;5.60;1.63;;;11.50;86.00;;;;;;5032486;28;20421;-74
2021/10/06 03:55:01;;;;;;;8.70;1.53;;;11.50;85.90;;;;;;5010267;28;20429;-74
2021/10/06 03:57:27;;;;;;;2.23;0.80;;;11.40;85.50;;;;;;5011015;28;20496;-75
2021/10/06 03:59:53;;;;;;;4.90;1.37;;;11.40;85.20;;;;;;5017981;28;20990;-74
2021/10/06 04:02:19;;;;;;;2.23;1.40;;;11.40;85.30;;;;;;5031190;28;20492;-75
2021/10/06 04:04:45;;;;;;;6.40;1.43;;;11.40;85.40;;;;;;5030889;28;20248;-75
2021/10/06 04:07:10;;;;;;;9.40;1.93;;;11.40;85.30;;;;;;5030919;28;20186;-74
2021/10/06 04:09:36;;;;;;;6.90;1.23;;;11.50;84.80;;;;;;5030418;28;20178;-74
2021/10/06 04:12:02;;;;;;;10.77;2.30;;;11.50;84.60;;;;;;5029427;28;20171;-74
2021/10/06 04:14:27;;;;;;;2.73;1.37;;;11.50;84.50;;;;;;5029691;28;20162;-74
2021/10/06 04:16:53;;;;;;;1.80;1.20;;;11.50;84.10;;;;;;5031012;28;20603;-74
2021/10/06 04:19:19;;;;;;;5.40;1.40;;;11.60;84.30;;;;;;5030584;28;20194;-74
2021/10/06 04:21:45;;;;;;;4.30;1.47;;;11.60;83.90;;;;;;5028764;28;20198;-74
2021/10/06 04:24:10;;;;;;;3.33;1.20;;;11.60;83.70;;;;;;5029309;28;20197;-74
2021/10/06 04:26:36;;;;;;;6.87;1.60;;;11.70;83.60;;;;;;5030526;28;20244;-75
2021/10/06 04:29:02;;;;;;;5.83;1.47;;;11.70;82.90;;;;;;5030025;28;20170;-73
2021/10/06 04:31:28;;;;;;;3.60;1.53;;;11.80;82.40;;;;;;5028538;28;20186;-74
2021/10/06 04:33:54;;;;;;;5.77;1.23;;;11.80;81.90;;;;;;5029594;28;20447;-74
2021/10/06 04:36:19;;;;;;;3.40;1.20;;;11.90;81.50;;;;;;5029217;28;20664;-74
2021/10/06 04:38:45;;;;;;;4.30;1.13;;;11.90;81.30;;;;;;5030383;28;20524;-74
2021/10/06 04:41:12;;;;;;;7.00;1.40;;;11.90;81.00;;;;;;5027543;28;20198;-73
2021/10/06 04:43:37;;;;;;;6.43;1.17;;;12.00;80.60;;;;;;5035737;28;20208;-74
2021/10/06 04:46:03;;;;;;;2.60;1.23;;;12.00;80.30;;;;;;5012833;28;20931;-74
2021/10/06 04:48:29;;;;;;;8.43;2.03;;;12.00;79.90;;;;;;5030152;28;20174;-74
2021/10/06 04:50:55;;;;;;;8.50;2.07;;;12.00;79.10;;;;;;5027726;28;20206;-74
2021/10/06 04:53:21;;;;;;;5.60;1.60;;;12.10;79.50;;;;;;5027449;28;20207;-75
2021/10/06 04:55:48;;;;;;;16.40;3.27;;;12.10;79.20;;;;;;5011568;28;20217;-74
2021/10/06 04:58:14;;;;;;;3.00;1.07;;;12.00;79.20;;;;;;5025080;28;20244;-74
2021/10/06 05:00:39;;;;;;;7.40;1.70;;;12.10;79.20;;;;;;5028843;28;21221;-74
2021/10/06 05:03:10;;;;;;;6.20;1.77;;;12.10;79.40;;;;;;5030825;28;20516;-75
2021/10/06 05:05:36;;;;;;;7.03;2.00;;;12.00;79.40;;;;;;5029074;28;20460;-74
2021/10/06 05:08:03;;;;;;;2.90;1.27;;;12.00;79.40;;;;;;5030179;28;20503;-75
2021/10/06 05:10:28;;;;;;;3.77;1.40;;;12.00;79.60;;;;;;5027873;28;20775;-75
2021/10/06 05:12:54;;;;;;;3.53;1.53;;;12.00;79.70;;;;;;5029482;28;20417;-74
2021/10/06 05:15:20;;;;;;;7.10;3.27;;;11.90;79.70;;;;;;5030115;28;20236;-73
2021/10/06 05:17:45;;;;;;;6.93;1.57;;;11.90;79.70;;;;;;5029900;28;20261;-74
2021/10/06 05:20:11;;;;;;;4.70;1.40;;;11.90;79.60;;;;;;5029425;28;20190;-74
2021/10/06 05:22:37;;;;;;;3.57;1.40;;;11.90;79.40;;;;;;5028237;28;20167;-75
2021/10/06 05:25:06;;;;;;;4.20;1.40;;;12.00;79.40;;;;;;5029497;28;20479;-75
2021/10/06 05:27:33;;;;;;;2.50;1.07;;;12.00;79.40;;;;;;5029877;28;20178;-74
2021/10/06 05:29:59;;;;;;;7.03;1.67;;;12.00;79.40;;;;;;5027394;28;20550;-75
2021/10/06 05:32:30;;;;;;;2.40;1.20;;;12.00;79.40;;;;;;5030131;28;20441;-74
2021/10/06 05:34:56;;;;;;;2.33;1.20;;;12.00;78.70;;;;;;5030121;28;20409;-75
2021/10/06 05:37:22;;;;;;;6.20;1.33;;;12.00;78.70;;;;;;5029790;28;20743;-75
2021/10/06 05:39:48;;;;;;;5.63;1.73;;;12.00;79.30;;;;;;5026749;28;20182;-75
2021/10/06 05:42:16;;;;;;;5.53;1.13;;;12.10;78.40;;;;;;5033234;28;20176;-74
2021/10/06 05:44:46;;;;;;;4.13;2.00;;;12.10;78.00;;;;;;5031802;28;20214;-75
2021/10/06 05:47:12;;;;;;;4.07;1.40;;;12.10;77.80;;;;;;5033597;28;20428;-74
2021/10/06 05:49:38;;;;;;;2.50;1.33;;;12.10;77.80;;;;;;5032352;28;20464;-74
2021/10/06 05:52:03;;;;;;;8.67;1.27;;;12.10;77.70;;;;;;5031171;28;20970;-74
2021/10/06 05:54:29;;;;;;;4.17;1.80;;;12.00;77.60;;;;;;5031756;28;20170;-73
2021/10/06 05:56:55;;;;;;;3.70;1.70;;;12.00;77.80;;;;;;5033254;28;20167;-74
2021/10/06 05:59:20;;;;;;;4.10;1.30;;;12.10;77.90;;;;;;5031587;28;20174;-75
2021/10/06 06:01:46;;;;;;;9.07;1.77;;;12.10;77.90;;;;;;5033089;28;20901;-78
2021/10/06 06:04:13;;;;;;;9.80;2.90;;;12.20;77.80;;;;;;5034661;28;20236;-79
2021/10/06 06:06:42;;;;;;;3.37;1.50;;;12.20;77.30;;;;;;5034738;28;20220;-78
2021/10/06 06:09:09;;;;;;;5.33;2.40;;;12.30;77.10;;;;;;5034287;28;20413;-79
2021/10/06 06:11:35;;;;;;;2.97;1.30;;;12.20;76.50;;;;;;5033395;28;20925;-79
2021/10/06 06:14:00;;;;;;;2.10;1.00;;;12.30;76.50;;;;;;5035460;28;20419;-79
2021/10/06 06:16:26;;;;;;;3.83;1.70;;;12.30;76.50;;;;;;5035305;28;20492;-80
2021/10/06 06:18:52;;;;;;;8.30;1.30;;;12.30;76.40;;;;;;5035490;28;20179;-79
2021/10/06 06:21:18;;;;;;;4.67;1.47;;;12.40;76.30;;;;;;5034029;28;20433;-79
2021/10/06 06:23:43;;;;;;;5.30;1.40;;;12.50;75.80;;;;;;5033276;28;20735;-78
2021/10/06 06:26:09;;;;;;;7.73;1.23;;;12.60;75.80;;;;;;5034749;28;20198;-78
2021/10/06 06:28:38;;;;;;;6.63;1.63;;;12.70;74.70;;;;;;5035256;28;20170;-78
2021/10/06 06:31:04;;;;;;;3.37;1.43;;;12.80;74.10;;;;;;5033991;28;20437;-78
2021/10/06 06:33:30;;;;;;;4.20;1.17;;;13.00;73.30;;;;;;5034984;28;20944;-79
2021/10/06 06:35:55;;;;;;;6.40;2.23;;;13.10;72.20;;;;;;5035790;28;20412;-79
2021/10/06 06:38:21;;;;;;;4.27;1.77;;;13.30;71.50;;;;;;5035748;28;20175;-78
2021/10/06 06:40:47;;;;;;;4.60;1.20;;;13.30;70.50;;;;;;5034242;28;20432;-79
2021/10/06 06:43:12;;;;;;;5.63;1.17;;;13.40;70.20;;;;;;5017142;28;20170;-79
2021/10/06 06:45:38;;;;;;;5.90;1.33;;;13.40;69.90;;;;;;5034478;28;20587;-81
2021/10/06 06:48:05;;;;;;;4.30;1.63;;;13.40;69.20;;;;;;5034147;28;20155;-79
2021/10/06 06:50:31;;;;;;;3.87;1.30;;;13.40;70.00;;;;;;5033935;28;20198;-79
2021/10/06 06:52:57;;;;;;;3.87;1.20;;;13.30;69.40;;;;;;5034164;28;20409;-80
2021/10/06 06:55:23;;;;;;;2.40;1.37;;;13.30;69.80;;;;;;5036230;28;20514;-79
2021/10/06 06:57:51;;;;;;;5.20;1.47;;;13.20;70.30;;;;;;5043008;28;20174;-81
2021/10/06 07:00:17;;;;;;;4.97;1.40;;;13.10;71.30;;;;;;5042001;28;20274;-79
2021/10/06 07:02:46;;;;;;;4.73;1.93;;;13.00;71.90;;;;;;5040839;28;20440;-78
2021/10/06 07:05:11;;;;;;;6.37;2.10;;;13.00;72.80;;;;;;5036809;28;20208;-79
2021/10/06 07:07:37;;;;;;;3.13;2.00;;;12.90;73.70;;;;;;5033573;28;20409;-78
2021/10/06 07:10:07;;;;;;;7.13;1.40;;;12.90;74.60;;;;;;5033483;28;20243;-79
2021/10/06 07:12:33;;;;;;;6.50;1.20;;;12.80;75.10;;;;;;5034109;28;20410;-79
2021/10/06 07:14:58;;;;;;;3.73;1.17;;;12.80;76.00;;;;;;5035566;28;20450;-80
2021/10/06 07:17:24;;;;;;;5.40;1.80;;;12.80;76.30;;;;;;5036284;28;20177;-79
2021/10/06 07:19:50;;;;;;;4.00;1.63;;;12.80;77.10;;;;;;5035684;28;20187;-80
2021/10/06 07:22:19;;;;;;;12.83;5.23;;;12.80;77.90;;;;;;5036091;28;20177;-80
2021/10/06 07:24:45;;;;;;;2.07;1.13;;;12.70;78.70;;;;;;5037817;28;20514;-80
2021/10/06 07:27:11;;;;;;;4.40;1.63;;;12.70;79.20;;;;;;5034200;28;20401;-79
2021/10/06 07:29:38;;;;;;;3.57;1.60;;;12.60;79.40;;;;;;5035033;28;20416;-81
2021/10/06 07:32:04;;;;;;;2.33;1.30;;;12.60;80.20;;;;;;5035178;28;20416;-79
2021/10/06 07:34:29;;;;;;;7.53;1.90;;;12.50;80.70;;;;;;5035473;28;20409;-79
2021/10/06 07:36:56;;;;;;;5.40;1.90;;;12.50;81.20;;;;;;5035822;28;20436;-78
2021/10/06 07:39:21;;;;;;;4.43;1.40;;;12.50;81.90;;;;;;5035355;28;20167;-79
2021/10/06 07:41:47;;;;;;;4.87;1.20;;;12.50;82.60;;;;;;5033956;28;20495;-79
2021/10/06 07:44:16;;;;;;;6.13;1.40;;;12.60;82.60;;;;;;5035799;28;20194;-77
2021/10/06 07:46:42;;;;;;;3.90;1.20;;;12.60;83.10;;;;;;5034848;28;20298;-80
2021/10/06 07:49:09;;;;;;;4.50;1.17;;;12.70;83.00;;;;;;5032901;28;20409;-81
2021/10/06 07:51:36;;;;;;;2.80;1.30;;;12.70;82.90;;;;;;5034556;28;20471;-79
2021/10/06 07:54:04;;;;;;;6.83;1.80;;;12.70;83.20;;;;;;5035477;28;20502;-80
2021/10/06 07:56:30;;;;;;;5.17;1.47;;;12.70;82.80;;;;;;5036290;28;20505;-80
2021/10/06 07:58:56;;;;;;;4.07;1.50;;;12.70;81.80;;;;;;5034747;28;21000;-78
2021/10/06 08:01:21;;;;;;;3.70;1.60;;;12.70;82.00;;;;;;5034254;28;20428;-80
2021/10/06 08:03:47;;;;;;;10.07;2.40;;;12.70;82.40;;;;;;5034546;28;20198;-79
2021/10/06 08:06:13;;;;;;;3.77;1.03;;;12.70;82.20;;;;;;5039535;28;20163;-80
2021/10/06 08:08:40;;;;;;;6.03;2.70;;;12.70;81.70;;;;;;5053063;28;20389;-78
2021/10/06 08:11:05;;;;;;;4.53;1.10;;;12.60;81.80;;;;;;5053374;28;20433;-79
2021/10/06 08:13:31;;;;;;;3.83;1.30;;;12.50;82.40;;;;;;5055807;28;20193;-78
2021/10/06 08:15:57;;;;;;;5.07;1.90;;;12.60;82.90;;;;;;5050478;28;20194;-79
2021/10/06 08:18:24;;;;;;;5.03;1.20;;;12.70;83.30;;;;;;5033783;28;20174;-80
2021/10/06 08:20:51;;;;;;;3.67;1.60;;;12.70;83.10;;;;;;5033179;28;20443;-78
2021/10/06 08:23:17;;;;;;;5.17;1.53;;;12.70;82.50;;;;;;5033315;28;20417;-79
2021/10/06 08:25:44;;;;;;;2.87;1.10;;;12.70;82.00;;;;;;5033939;28;20510;-77
2021/10/06 08:28:10;;;;;;;11.00;2.60;;;12.80;82.00;;;;;;5033525;28;20444;-80
2021/10/06 08:30:36;;;;;;;1.83;0.90;;;12.80;82.00;;;;;;5031324;28;20522;-79
2021/10/06 08:33:03;;;;;;;4.40;1.67;;;12.90;81.60;;;;;;5033141;28;20409;-79
2021/10/06 08:35:29;;;;;;;5.07;1.40;;;12.90;80.90;;;;;;5033924;28;20409;-80
2021/10/06 08:37:56;;;;;;;2.27;1.40;;;12.90;80.60;;;;;;5033938;28;20409;-79
2021/10/06 08:40:23;;;;;;;4.13;1.27;;;13.00;79.40;;;;;;5032768;28;20437;-78
2021/10/06 08:42:49;;;;;;;3.97;1.00;;;13.00;80.00;;;;;;5033517;28;20171;-78
2021/10/06 08:45:15;;;;;;;4.30;2.20;;;13.00;78.30;;;;;;5032763;28;20511;-79
2021/10/06 08:47:42;;;;;;;5.50;1.70;;;13.00;80.00;;;;;;5031390;28;20415;-78
2021/10/06 08:50:11;;;;;;;4.63;1.67;;;13.10;78.70;;;;;;5031314;28;20444;-79
2021/10/06 08:52:37;;;;;;;8.13;2.07;;;13.10;76.40;;;;;;5033704;28;20409;-79
2021/10/06 08:55:06;;;;;;;2.60;1.00;;;13.10;77.40;;;;;;5033968;28;20474;-80
2021/10/06 08:57:33;;;;;;;4.07;1.20;;;13.10;75.50;;;;;;5034469;28;20820;-78
2021/10/06 08:59:59;;;;;;;3.07;1.00;;;13.20;75.40;;;;;;5032681;28;20479;-79
2021/10/06 09:02:25;;;;;;;7.53;1.60;;;13.30;75.60;;;;;;5034271;28;20471;-81
2021/10/06 09:04:50;;;;;;;4.20;1.33;;;13.30;75.50;;;;;;5034179;28;20206;-79
2021/10/06 09:07:16;;;;;;;2.20;1.00;;;13.40;74.70;;;;;;5033926;28;20529;-79
2021/10/06 09:09:42;;;;;;;3.90;1.60;;;13.50;73.40;;;;;;5033176;28;20171;-80
2021/10/06 09:12:14;;;;;;;2.50;0.90;;;13.60;73.70;;;;;;5034094;28;20166;-80
2021/10/06 09:14:48;;;;;;;4.77;1.73;;;13.60;72.20;;;;;;5033609;28;20939;-78
2021/10/06 09:17:14;;;;;;;5.07;1.20;;;13.60;72.80;;;;;;5035752;28;20482;-78
2021/10/06 09:19:53;;;;;;;4.10;1.67;;;13.70;72.80;;;;;;5035977;28;20405;-79
2021/10/06 09:22:26;;;;;;;4.20;1.40;;;13.70;72.10;;;;;;5036240;28;20421;-79
2021/10/06 09:24:58;;;;;;;2.20;1.20;;;13.70;72.10;;;;;;5038150;28;20487;-79
2021/10/06 09:27:30;;;;;;;3.83;1.07;;;13.60;71.20;;;;;;5037504;28;20463;-79
2021/10/06 09:29:58;;;;;;;5.33;1.13;;;13.60;71.40;;;;;;5036247;28;20420;-77
2021/10/06 09:32:26;;;;;;;5.33;1.27;;;13.50;71.80;;;;;;5037327;28;20405;-79
2021/10/06 09:35:17;;;;;;;2.63;1.10;;;13.40;73.30;;;;;;5035626;28;20413;-79
2021/10/06 09:37:55;;;;;;;4.27;1.00;;;13.30;73.80;;;;;;5037337;28;20783;-80
2021/10/06 09:40:24;;;;;;;2.30;0.97;;;13.30;74.40;;;;;;5036273;28;20934;-79
2021/10/06 09:42:58;;;;;;;4.83;0.93;;;13.30;74.60;;;;;;5038426;28;20829;-81
2021/10/06 09:45:23;;;;;;;4.17;1.80;;;13.30;74.40;;;;;;5036955;28;20476;-79
2021/10/06 09:48:05;;;;;;;4.00;1.20;;;13.40;74.10;;;;;;5036518;28;20417;-80
2021/10/06 09:50:33;;;;;;;6.40;1.17;;;13.30;73.60;;;;;;5035506;28;20270;-78
2021/10/06 09:53:07;;;;;;;3.57;1.00;;;13.30;74.30;;;;;;5035985;28;20443;-80
2021/10/06 09:55:37;;;;;;;7.67;1.77;;;13.40;73.70;;;;;;5036915;28;20472;-80
2021/10/06 09:58:04;;;;;;;2.60;1.40;;;13.40;73.90;;;;;;5036865;28;20878;-80
2021/10/06 10:00:30;;;;;;;3.27;1.37;;;13.50;73.70;;;;;;5038004;28;20425;-80
2021/10/06 10:02:57;;;;;;;2.57;1.10;;;13.50;74.10;;;;;;5018929;28;20421;-78
2021/10/06 10:05:22;;;;;;;3.30;1.20;;;13.50;72.30;;;;;;5036933;28;20492;-80
2021/10/06 10:07:50;;;;;;;3.40;1.50;;;13.40;72.40;;;;;;5039305;28;20398;-81
2021/10/06 10:10:16;;;;;;;6.43;1.37;;;13.40;73.20;;;;;;5037760;28;20286;-80
2021/10/06 10:12:42;;;;;;;3.30;1.03;;;13.50;73.40;;;;;;5037654;28;20413;-80
2021/10/06 10:15:09;;;;;;;2.43;1.20;;;13.40;73.20;;;;;;5037399;28;20405;-80
2021/10/06 10:17:35;;;;;;;2.60;1.00;;;13.40;73.90;;;;;;5037318;28;20509;-79
2021/10/06 10:20:07;;;;;;;2.60;1.17;;;13.40;74.10;;;;;;5035963;28;20525;-79
2021/10/06 10:22:38;;;;;;;3.93;1.03;;;13.30;73.90;;;;;;5036115;28;20608;-79
2021/10/06 10:25:25;;;;;;;3.03;0.90;;;13.30;74.50;;;;;;5035374;28;20468;-78
2021/10/06 10:28:05;;;;;;;2.33;1.23;;;13.30;74.20;;;;;;5034903;28;20447;-80
2021/10/06 10:30:33;;;;;;;4.40;0.90;;;13.40;74.40;;;;;;5035214;28;20922;-79
2021/10/06 10:33:00;;;;;;;3.13;1.07;;;13.40;73.80;;;;;;5035840;28;20417;-79
2021/10/06 10:35:31;;;;;;;2.93;1.43;;;13.40;73.70;;;;;;5034679;28;20420;-79
2021/10/06 10:38:00;;;;;;;3.10;1.27;;;13.50;74.20;;;;;;5035922;28;20413;-78
2021/10/06 10:40:34;;;;;;;3.10;1.37;;;13.50;74.70;;;;;;5035360;28;20650;-77
2021/10/06 10:43:16;;;;;;;2.47;1.00;;;13.50;74.90;;;;;;5036763;28;20412;-80
2021/10/06 10:45:47;;;;;;;1.53;1.00;;;13.60;75.60;;;;;;5036958;28;20447;-78
2021/10/06 10:48:47;;;;;;;4.37;2.17;;;13.60;77.10;;;;;;5038169;28;20435;-78
2021/10/06 10:51:13;;;;;;;4.67;1.30;;;13.60;78.60;;;;;;5041737;28;20449;-80
2021/10/06 10:53:51;;;;;;;3.07;1.20;;;13.40;79.70;;;;;;5047186;28;20491;-78
2021/10/06 10:56:49;;;;;;;5.50;1.67;;;13.30;81.10;;;;;;5044410;28;20162;-80
2021/10/06 10:59:24;;;;;;;2.93;1.57;;;13.10;82.90;;;;;;5008544;28;20424;-79
2021/10/06 11:01:57;;;;;;;2.00;1.00;;;13.10;83.80;;;;;;5043707;28;20431;-79
2021/10/06 11:04:29;;;;;;;3.37;1.70;;;13.00;84.10;;;;;;5046108;28;20991;-80
2021/10/06 11:07:18;;;;;;;5.17;1.60;;;13.00;84.40;;;;;;5043430;28;20445;-78
2021/10/06 11:09:52;;;;;;;2.00;1.00;;;13.00;83.60;;;;;;5040133;28;20412;-79
2021/10/06 11:12:21;;;;;;;1.77;0.90;;;13.00;84.60;;;;;;5044968;28;20405;-79
2021/10/06 11:14:49;;;;;;;1.53;1.00;;;13.00;84.40;;;;;;5044518;28;20497;-78
2021/10/06 11:17:16;;;;;;;3.23;0.90;;;13.10;84.70;;;;;;5043104;28;20508;-78
2021/10/06 11:19:46;;;;;;;1.73;0.93;;;13.10;83.70;;;;;;5044077;28;20405;-77
2021/10/06 11:22:24;;;;;;;5.43;1.37;;;13.20;83.90;;;;;;5040097;28;20775;-78
2021/10/06 11:24:59;;;;;;;1.53;1.13;;;13.10;83.20;;;;;;5037371;28;20514;-78
2021/10/06 11:27:26;;;;;;;2.60;1.30;;;13.10;83.20;;;;;;5040797;28;20405;-79
2021/10/06 11:29:55;;;;;;;3.07;2.00;;;13.20;83.30;;;;;;5037865;28;20689;-79
2021/10/06 11:32:21;;;;;;;4.20;1.20;;;13.20;82.80;;;;;;5038449;28;20771;-78
2021/10/06 11:34:49;;;;;;;1.10;0.90;;;13.20;82.60;;;;;;5040313;28;20433;-79
2021/10/06 11:37:26;;;;;;;3.00;1.00;;;13.30;82.70;;;;;;5022113;28;20647;-79
2021/10/06 11:39:52;;;;;;;2.47;1.20;;;13.30;81.60;;;;;;5036543;28;20424;-79
2021/10/06 11:42:19;;;;;;;4.73;1.37;;;13.30;81.10;;;;;;5037725;28;20444;-80
2021/10/06 11:44:46;;;;;;;3.10;1.20;;;13.30;81.30;;;;;;5037995;28;20452;-79
2021/10/06 11:47:15;;;;;;;2.80;1.53;;;13.40;82.10;;;;;;5036481;28;20448;-79
2021/10/06 11:49:43;;;;;;;2.63;1.20;;;13.50;81.90;;;;;;5036440;28;20813;-79
2021/10/06 11:52:12;;;;;;;3.37;1.67;;;13.60;81.90;;;;;;5036967;28;20487;-78
2021/10/06 11:54:37;;;;;;;5.50;1.20;;;13.60;81.00;;;;;;5032304;28;20488;-79
2021/10/06 11:57:07;;;;;;;4.10;1.60;;;13.70;81.60;;;;;;5032517;28;20507;-78
2021/10/06 11:59:34;;;;;;;2.70;1.00;;;13.80;80.00;;;;;;5028171;28;20221;-78
2021/10/06 12:02:01;;;;;;;2.93;1.00;;;13.70;79.10;;;;;;5031613;28;20425;-79
2021/10/06 12:04:30;;;;;;;1.40;1.00;;;13.50;80.00;;;;;;5033458;28;20460;-78
2021/10/06 12:07:02;;;;;;;2.20;1.20;;;13.50;80.50;;;;;;5032753;28;20941;-79
2021/10/06 12:09:38;;;;;;;4.80;1.80;;;13.50;80.90;;;;;;5031348;28;20492;-79
2021/10/06 12:12:12;;;;;;;4.70;1.87;;;13.50;80.80;;;;;;5032651;28;20462;-78
2021/10/06 12:14:47;;;;;;;2.77;1.30;;;13.50;80.50;;;;;;5035219;28;20768;-79
2021/10/06 12:17:20;;;;;;;4.73;0.97;;;13.50;80.90;;;;;;5035038;28;20499;-77
2021/10/06 12:20:01;;;;;;;2.93;1.97;;;13.50;80.70;;;;;;5050877;28;20424;-79
2021/10/06 12:22:34;;;;;;;4.50;1.33;;;13.50;81.60;;;;;;5054231;28;20443;-78
2021/10/06 12:25:03;;;;;;;3.10;1.20;;;13.50;81.00;;;;;;5047043;28;20468;-77
2021/10/06 12:27:32;;;;;;;3.70;1.53;;;13.50;80.90;;;;;;5033698;28;20397;-79
2021/10/06 12:30:19;;;;;;;2.00;0.90;;;13.50;81.30;;;;;;5032443;28;20437;-69
2021/10/06 12:32:48;;;;;;;2.13;1.07;;;13.60;81.60;;;;;;5030704;28;20535;-70
2021/10/06 12:35:18;;;;;;;4.40;1.37;;;13.70;82.60;;;;;;5035602;28;20440;-80
2021/10/06 12:37:48;;;;;;;1.20;0.90;;;13.80;81.40;;;;;;5036145;28;20417;-81
2021/10/06 12:40:41;;;;;;;1.90;1.10;;;13.90;80.50;;;;;;5037587;28;21165;-81
2021/10/06 12:43:12;;;;;;;1.90;1.10;;;14.10;80.00;;;;;;5039336;28;20412;-81
2021/10/06 12:46:11;;;;;;;1.90;1.10;;;14.30;79.50;;;;;;5037574;28;20457;-80
2021/10/06 12:48:41;;;;;;;4.03;1.20;;;14.40;77.40;;;;;;5029312;28;20441;-80
2021/10/06 12:51:12;;;;;;;1.33;0.80;;;14.40;78.00;;;;;;5037926;28;20467;-80